sensor_id;sensor_type;location;lat;lon;timestamp;pressure;altitude;pressure_sealevel;temperature;humidity
74621;BME280;64861;47.546;19.254;2023-03-01T00:01:24;100200.97;;;21.28;44.20
74621;BME280;64861;47.546;19.254;2023-03-01T00:03:50;100204.75;;;21.35;43.90
74621;BME280;64861;47.546;19.254;2023-03-01T00:06:16;100201.66;;;21.30;44.20
74621;BME280;64861;47.546;19.254;2023-03-01T00:08:42;100199.84;;;21.30;44.09
74621;BME280;64861;47.546;19.254;2023-03-01T00:11:26;100194.81;;;21.27;44.04
74621;BME280;64861;47.546;19.254;2023-03-01T00:13:54;100199.97;;;21.29;44.08
74621;BME280;64861;47.546;19.254;2023-03-01T00:16:23;100202.78;;;21.27;44.22
74621;BME280;64861;47.546;19.254;2023-03-01T00:18:48;100202.78;;;21.27;44.16
74621;BME280;64861;47.546;19.254;2023-03-01T00:21:15;100204.47;;;21.28;44.22
74621;BME280;64861;47.546;19.254;2023-03-01T00:23:41;100212.59;;;21.27;44.28
74621;BME280;64861;47.546;19.254;2023-03-01T00:26:12;100202.78;;;21.27;44.30
74621;BME280;64861;47.546;19.254;2023-03-01T00:28:38;100201.13;;;21.26;44.27
74621;BME280;64861;47.546;19.254;2023-03-01T00:31:10;100204.75;;;21.25;44.41
74621;BME280;64861;47.546;19.254;2023-03-01T00:33:36;100204.75;;;21.25;44.32
74621;BME280;64861;47.546;19.254;2023-03-01T00:36:03;100211.06;;;21.24;44.24
74621;BME280;64861;47.546;19.254;2023-03-01T00:38:29;100211.75;;;21.26;44.38
74621;BME280;64861;47.546;19.254;2023-03-01T00:40:55;100207.69;;;21.22;44.42
74621;BME280;64861;47.546;19.254;2023-03-01T00:43:20;100206.44;;;21.26;44.27
74621;BME280;64861;47.546;19.254;2023-03-01T00:45:46;100200.69;;;21.31;44.09
74621;BME280;64861;47.546;19.254;2023-03-01T00:48:11;100212.03;;;21.33;44.28
74621;BME280;64861;47.546;19.254;2023-03-01T00:50:36;100209.38;;;21.23;44.36
74621;BME280;64861;47.546;19.254;2023-03-01T00:53:02;100210.06;;;21.25;44.49
74621;BME280;64861;47.546;19.254;2023-03-01T00:55:28;100208.81;;;21.29;44.42
74621;BME280;64861;47.546;19.254;2023-03-01T00:57:53;100215.38;;;21.25;44.36
74621;BME280;64861;47.546;19.254;2023-03-01T01:00:20;100213.59;;;21.26;44.34
74621;BME280;64861;47.546;19.254;2023-03-01T01:02:45;100211.22;;;21.23;44.44
74621;BME280;64861;47.546;19.254;2023-03-01T01:05:11;100216.38;;;21.24;44.58
74621;BME280;64861;47.546;19.254;2023-03-01T01:07:37;100217.06;;;21.26;44.42
74621;BME280;64861;47.546;19.254;2023-03-01T01:10:02;100206.28;;;21.28;44.43
74621;BME280;64861;47.546;19.254;2023-03-01T01:12:28;100208.53;;;21.32;44.37
74621;BME280;64861;47.546;19.254;2023-03-01T01:14:54;100211.06;;;21.24;44.61
74621;BME280;64861;47.546;19.254;2023-03-01T01:17:19;100206.28;;;21.28;44.55
74621;BME280;64861;47.546;19.254;2023-03-01T01:19:45;100197.31;;;21.29;44.36
74621;BME280;64861;47.546;19.254;2023-03-01T01:22:10;100196.47;;;21.28;44.39
74621;BME280;64861;47.546;19.254;2023-03-01T01:24:36;100191.31;;;21.27;44.63
74621;BME280;64861;47.546;19.254;2023-03-01T01:27:01;100197.63;;;21.26;44.52
74621;BME280;64861;47.546;19.254;2023-03-01T01:29:27;100186.69;;;21.29;44.40
74621;BME280;64861;47.546;19.254;2023-03-01T01:31:52;100177.88;;;21.28;44.52
74621;BME280;64861;47.546;19.254;2023-03-01T01:34:20;100178.69;;;21.29;44.45
74621;BME280;64861;47.546;19.254;2023-03-01T01:36:53;100170.88;;;21.27;44.41
74621;BME280;64861;47.546;19.254;2023-03-01T01:39:19;100165.28;;;21.30;44.52
74621;BME280;64861;47.546;19.254;2023-03-01T01:41:44;100159.72;;;21.24;44.65
74621;BME280;64861;47.546;19.254;2023-03-01T01:46:37;100148.53;;;21.20;44.61
74621;BME280;64861;47.546;19.254;2023-03-01T01:49:10;100156.50;;;21.20;44.71
74621;BME280;64861;47.546;19.254;2023-03-01T01:51:43;100144.03;;;21.21;44.61
74621;BME280;64861;47.546;19.254;2023-03-01T01:54:15;100148.38;;;21.22;44.52
74621;BME280;64861;47.546;19.254;2023-03-01T01:56:48;100149.63;;;21.27;44.41
74621;BME280;64861;47.546;19.254;2023-03-01T01:59:17;100152.13;;;21.29;44.45
74621;BME280;64861;47.546;19.254;2023-03-01T02:01:43;100153.81;;;21.30;44.42
74621;BME280;64861;47.546;19.254;2023-03-01T02:04:09;100152.72;;;21.23;44.60
74621;BME280;64861;47.546;19.254;2023-03-01T02:06:39;100150.06;;;21.23;44.54
74621;BME280;64861;47.546;19.254;2023-03-01T02:09:12;100151.56;;;21.25;44.65
74621;BME280;64861;47.546;19.254;2023-03-01T02:11:38;100145.59;;;21.23;44.59
74621;BME280;64861;47.546;19.254;2023-03-01T02:14:04;100148.09;;;21.25;44.57
74621;BME280;64861;47.546;19.254;2023-03-01T02:16:30;100140.09;;;21.25;44.62
74621;BME280;64861;47.546;19.254;2023-03-01T02:18:56;100131.28;;;21.24;44.48
74621;BME280;64861;47.546;19.254;2023-03-01T02:21:45;100145.72;;;21.22;44.49
74621;BME280;64861;47.546;19.254;2023-03-01T02:24:49;100138.03;;;21.19;44.85
74621;BME280;64861;47.546;19.254;2023-03-01T02:27:09;100137.59;;;21.23;44.75
74621;BME280;64861;47.546;19.254;2023-03-01T02:29:35;100139.97;;;21.26;44.56
74621;BME280;64861;47.546;19.254;2023-03-01T02:32:02;100134.13;;;21.23;44.57
74621;BME280;64861;47.546;19.254;2023-03-01T02:34:30;100140.56;;;21.20;44.59
74621;BME280;64861;47.546;19.254;2023-03-01T02:36:57;100130.75;;;21.21;44.77
74621;BME280;64861;47.546;19.254;2023-03-01T02:39:30;100129.63;;;21.23;44.54
74621;BME280;64861;47.546;19.254;2023-03-01T02:41:57;100124.31;;;21.23;44.57
74621;BME280;64861;47.546;19.254;2023-03-01T02:44:24;100116.19;;;21.25;44.41
74621;BME280;64861;47.546;19.254;2023-03-01T02:46:52;100120.22;;;21.29;44.38
74621;BME280;64861;47.546;19.254;2023-03-01T02:49:30;100114.34;;;21.25;44.39
74621;BME280;64861;47.546;19.254;2023-03-01T02:57:06;100108.50;;;21.22;44.68
74621;BME280;64861;47.546;19.254;2023-03-01T02:59:35;100106.66;;;21.22;44.44
74621;BME280;64861;47.546;19.254;2023-03-01T03:02:05;100107.53;;;21.23;44.51
74621;BME280;64861;47.546;19.254;2023-03-01T03:04:31;100104.34;;;21.19;44.66
74621;BME280;64861;47.546;19.254;2023-03-01T03:06:57;100101.81;;;21.18;44.70
74621;BME280;64861;47.546;19.254;2023-03-01T03:09:22;100098.56;;;21.24;44.47
74621;BME280;64861;47.546;19.254;2023-03-01T03:11:48;100095.75;;;21.25;44.39
74621;BME280;64861;47.546;19.254;2023-03-01T03:14:15;100090.72;;;21.22;44.65
74621;BME280;64861;47.546;19.254;2023-03-01T03:16:42;100099.56;;;21.23;44.45
74621;BME280;64861;47.546;19.254;2023-03-01T03:19:08;100106.00;;;21.20;44.63
74621;BME280;64861;47.546;19.254;2023-03-01T03:21:34;100098.56;;;21.24;44.52
74621;BME280;64861;47.546;19.254;2023-03-01T03:24:00;100110.19;;;21.23;44.45
74621;BME280;64861;47.546;19.254;2023-03-01T03:26:25;100107.81;;;21.20;44.46
74621;BME280;64861;47.546;19.254;2023-03-01T03:28:51;100107.81;;;21.20;44.64
74621;BME280;64861;47.546;19.254;2023-03-01T03:31:16;100107.94;;;21.18;44.71
74621;BME280;64861;47.546;19.254;2023-03-01T03:33:42;100104.47;;;21.18;44.55
74621;BME280;64861;47.546;19.254;2023-03-01T03:36:08;100099.97;;;21.18;44.63
74621;BME280;64861;47.546;19.254;2023-03-01T03:38:38;100099.69;;;21.21;44.58
74621;BME280;64861;47.546;19.254;2023-03-01T03:41:07;100108.66;;;21.20;44.52
74621;BME280;64861;47.546;19.254;2023-03-01T03:43:35;100109.66;;;21.19;44.70
74621;BME280;64861;47.546;19.254;2023-03-01T03:46:02;100107.94;;;21.18;44.55
74621;BME280;64861;47.546;19.254;2023-03-01T03:48:35;100101.50;;;21.21;44.62
74621;BME280;64861;47.546;19.254;2023-03-01T03:51:00;100102.34;;;21.21;44.68
74621;BME280;64861;47.546;19.254;2023-03-01T03:53:27;100095.66;;;21.17;44.52
74621;BME280;64861;47.546;19.254;2023-03-01T03:55:54;100105.84;;;21.22;44.62
74621;BME280;64861;47.546;19.254;2023-03-01T03:58:21;100095.91;;;21.24;44.39
74621;BME280;64861;47.546;19.254;2023-03-01T04:00:51;100097.03;;;21.21;44.50
74621;BME280;64861;47.546;19.254;2023-03-01T04:03:18;100104.00;;;21.22;44.43
74621;BME280;64861;47.546;19.254;2023-03-01T04:05:44;100101.22;;;21.24;44.31
74621;BME280;64861;47.546;19.254;2023-03-01T04:08:11;100097.72;;;21.23;44.61
74621;BME280;64861;47.546;19.254;2023-03-01T04:10:39;100101.50;;;21.21;44.60
74621;BME280;64861;47.546;19.254;2023-03-01T04:13:06;100103.19;;;21.22;44.37
74621;BME280;64861;47.546;19.254;2023-03-01T04:15:33;100106.25;;;21.27;44.23
74621;BME280;64861;47.546;19.254;2023-03-01T04:17:59;100102.59;;;21.28;44.42
74621;BME280;64861;47.546;19.254;2023-03-01T04:20:27;100106.53;;;21.24;44.21
74621;BME280;64861;47.546;19.254;2023-03-01T04:23:02;100108.19;;;21.25;44.40
74621;BME280;64861;47.546;19.254;2023-03-01T04:25:51;100106.81;;;21.21;44.56
74621;BME280;64861;47.546;19.254;2023-03-01T04:28:31;100111.16;;;21.22;44.44
74621;BME280;64861;47.546;19.254;2023-03-01T04:31:09;100101.50;;;21.21;44.79
74621;BME280;64861;47.546;19.254;2023-03-01T04:33:52;100109.47;;;21.21;44.56
74621;BME280;64861;47.546;19.254;2023-03-01T04:36:20;100103.72;;;21.25;44.21
74621;BME280;64861;47.546;19.254;2023-03-01T04:38:46;100105.16;;;21.20;44.48
74621;BME280;64861;47.546;19.254;2023-03-01T04:41:13;100095.38;;;21.20;44.56
74621;BME280;64861;47.546;19.254;2023-03-01T04:43:39;100101.06;;;21.25;44.32
74621;BME280;64861;47.546;19.254;2023-03-01T04:46:08;100091.72;;;21.21;44.46
74621;BME280;64861;47.546;19.254;2023-03-01T04:48:38;100093.53;;;21.21;44.34
74621;BME280;64861;47.546;19.254;2023-03-01T04:51:04;100085.72;;;21.19;44.43
74621;BME280;64861;47.546;19.254;2023-03-01T04:53:31;100090.03;;;21.20;44.58
74621;BME280;64861;47.546;19.254;2023-03-01T04:55:57;100087.22;;;21.22;44.42
74621;BME280;64861;47.546;19.254;2023-03-01T04:58:24;100085.84;;;21.18;44.48
74621;BME280;64861;47.546;19.254;2023-03-01T05:00:50;100087.69;;;21.17;44.56
74621;BME280;64861;47.546;19.254;2023-03-01T05:03:16;100090.63;;;21.14;44.68
74621;BME280;64861;47.546;19.254;2023-03-01T05:05:44;100090.72;;;21.22;44.31
74621;BME280;64861;47.546;19.254;2023-03-01T05:08:11;100086.38;;;21.21;44.36
74621;BME280;64861;47.546;19.254;2023-03-01T05:10:45;100089.88;;;21.22;44.29
74621;BME280;64861;47.546;19.254;2023-03-01T05:13:12;100083.72;;;21.21;44.49
74621;BME280;64861;47.546;19.254;2023-03-01T05:15:57;100086.84;;;21.17;44.46
74621;BME280;64861;47.546;19.254;2023-03-01T05:18:24;100084.84;;;21.19;44.56
74621;BME280;64861;47.546;19.254;2023-03-01T05:20:52;100085.84;;;21.18;44.57
74621;BME280;64861;47.546;19.254;2023-03-01T05:23:18;100089.34;;;21.18;44.53
74621;BME280;64861;47.546;19.254;2023-03-01T05:25:44;100089.22;;;21.20;44.57
74621;BME280;64861;47.546;19.254;2023-03-01T05:28:13;100089.22;;;21.20;44.46
74621;BME280;64861;47.546;19.254;2023-03-01T05:30:39;100095.50;;;21.19;44.39
74621;BME280;64861;47.546;19.254;2023-03-01T05:33:05;100095.66;;;21.17;44.61
74621;BME280;64861;47.546;19.254;2023-03-01T05:35:35;100096.19;;;21.21;44.47
74621;BME280;64861;47.546;19.254;2023-03-01T05:38:02;100093.69;;;21.19;44.44
74621;BME280;64861;47.546;19.254;2023-03-01T05:40:27;100103.63;;;21.17;44.45
74621;BME280;64861;47.546;19.254;2023-03-01T05:42:55;100106.00;;;21.20;44.40
74621;BME280;64861;47.546;19.254;2023-03-01T05:45:23;100103.19;;;21.22;44.44
74621;BME280;64861;47.546;19.254;2023-03-01T05:47:50;100105.69;;;21.23;44.31
74621;BME280;64861;47.546;19.254;2023-03-01T05:50:21;100101.66;;;21.19;44.39
74621;BME280;64861;47.546;19.254;2023-03-01T05:52:49;100102.63;;;21.18;44.34
74621;BME280;64861;47.546;19.254;2023-03-01T05:55:20;100101.81;;;21.18;44.45
74621;BME280;64861;47.546;19.254;2023-03-01T05:57:46;100099.00;;;21.19;44.50
74621;BME280;64861;47.546;19.254;2023-03-01T06:00:14;100101.34;;;21.22;44.34
74621;BME280;64861;47.546;19.254;2023-03-01T06:02:40;100103.34;;;21.20;44.49
74621;BME280;64861;47.546;19.254;2023-03-01T06:05:07;100101.50;;;21.21;44.45
74621;BME280;64861;47.546;19.254;2023-03-01T06:07:33;100107.81;;;21.20;44.36
74621;BME280;64861;47.546;19.254;2023-03-01T06:09:58;100101.06;;;21.25;44.06
74621;BME280;64861;47.546;19.254;2023-03-01T06:12:24;100108.75;;;21.28;43.88
74621;BME280;64861;47.546;19.254;2023-03-01T06:14:49;100116.19;;;21.25;44.06
74621;BME280;64861;47.546;19.254;2023-03-01T06:17:15;100114.81;;;21.21;44.42
74621;BME280;64861;47.546;19.254;2023-03-01T06:19:40;100110.03;;;21.24;44.36
74621;BME280;64861;47.546;19.254;2023-03-01T06:22:06;100119.13;;;21.22;44.38
74621;BME280;64861;47.546;19.254;2023-03-01T06:24:32;100115.09;;;21.18;44.59
74621;BME280;64861;47.546;19.254;2023-03-01T06:26:58;100116.75;;;21.19;44.54
74621;BME280;64861;47.546;19.254;2023-03-01T06:29:23;100122.50;;;21.24;44.44
74621;BME280;64861;47.546;19.254;2023-03-01T06:31:49;100111.84;;;21.24;44.58
74621;BME280;64861;47.546;19.254;2023-03-01T06:34:14;100114.34;;;21.25;44.39
74621;BME280;64861;47.546;19.254;2023-03-01T06:36:40;100116.72;;;21.28;44.26
74621;BME280;64861;47.546;19.254;2023-03-01T06:39:06;100118.84;;;21.25;44.25
74621;BME280;64861;47.546;19.254;2023-03-01T06:41:32;100122.31;;;21.25;44.60
74621;BME280;64861;47.546;19.254;2023-03-01T06:43:58;100124.31;;;21.23;44.77
74621;BME280;64861;47.546;19.254;2023-03-01T06:46:24;100123.19;;;21.26;44.64
74621;BME280;64861;47.546;19.254;2023-03-01T06:48:50;100128.50;;;21.26;44.55
74621;BME280;64861;47.546;19.254;2023-03-01T06:51:15;100129.59;;;21.33;44.44
74621;BME280;64861;47.546;19.254;2023-03-01T06:53:40;100131.53;;;21.31;44.64
74621;BME280;64861;47.546;19.254;2023-03-01T06:56:06;100131.53;;;21.31;44.66
74621;BME280;64861;47.546;19.254;2023-03-01T06:58:31;100127.75;;;21.33;44.59
74621;BME280;64861;47.546;19.254;2023-03-01T07:00:57;100134.91;;;21.33;44.63
74621;BME280;64861;47.546;19.254;2023-03-01T07:03:23;100136.47;;;21.26;43.99
74621;BME280;64861;47.546;19.254;2023-03-01T07:05:49;100139.69;;;21.29;43.99
74621;BME280;64861;47.546;19.254;2023-03-01T07:08:18;100128.59;;;21.34;44.35
74621;BME280;64861;47.546;19.254;2023-03-01T07:10:44;100124.16;;;21.34;44.35
74621;BME280;64861;47.546;19.254;2023-03-01T07:13:09;100108.66;;;21.20;44.23
74621;BME280;64861;47.546;19.254;2023-03-01T07:15:35;100127.91;;;21.32;44.62
74621;BME280;64861;47.546;19.254;2023-03-01T07:18:01;100134.66;;;21.36;44.66
74621;BME280;64861;47.546;19.254;2023-03-01T07:20:27;100122.31;;;21.35;44.71
74621;BME280;64861;47.546;19.254;2023-03-01T07:22:53;100125.38;;;21.40;44.71
74621;BME280;64861;47.546;19.254;2023-03-01T07:25:19;100114.88;;;21.39;44.68
74621;BME280;64861;47.546;19.254;2023-03-01T07:27:49;100117.84;;;21.35;44.84
74621;BME280;64861;47.546;19.254;2023-03-01T07:30:15;100121.72;;;21.41;44.52
74621;BME280;64861;47.546;19.254;2023-03-01T07:32:40;100121.59;;;21.43;44.63
74621;BME280;64861;47.546;19.254;2023-03-01T07:35:06;100115.28;;;21.44;44.64
74621;BME280;64861;47.546;19.254;2023-03-01T07:37:31;100118.94;;;21.43;44.71
74621;BME280;64861;47.546;19.254;2023-03-01T07:39:57;100119.06;;;21.41;44.77
74621;BME280;64861;47.546;19.254;2023-03-01T07:42:22;100117.66;;;21.47;44.49
74621;BME280;64861;47.546;19.254;2023-03-01T07:44:48;100114.00;;;21.48;44.57
74621;BME280;64861;47.546;19.254;2023-03-01T07:47:13;100118.50;;;21.47;44.74
74621;BME280;64861;47.546;19.254;2023-03-01T07:49:39;100111.06;;;21.51;44.53
74621;BME280;64861;47.546;19.254;2023-03-01T07:52:04;100117.91;;;21.53;44.58
74621;BME280;64861;47.546;19.254;2023-03-01T07:54:30;100112.59;;;21.53;44.56
74621;BME280;64861;47.546;19.254;2023-03-01T07:56:56;100107.81;;;21.57;44.48
74621;BME280;64861;47.546;19.254;2023-03-01T07:59:22;100103.19;;;21.59;44.41
74621;BME280;64861;47.546;19.254;2023-03-01T08:01:54;100111.41;;;21.66;44.39
74621;BME280;64861;47.546;19.254;2023-03-01T08:04:19;100113.97;;;21.75;44.15
74621;BME280;64861;47.546;19.254;2023-03-01T08:06:45;100107.00;;;21.74;44.05
74621;BME280;64861;47.546;19.254;2023-03-01T08:09:10;100114.66;;;21.77;44.13
74621;BME280;64861;47.546;19.254;2023-03-01T08:11:36;100108.22;;;21.80;44.17
74621;BME280;64861;47.546;19.254;2023-03-01T08:14:01;100103.97;;;21.87;43.76
74621;BME280;64861;47.546;19.254;2023-03-01T08:16:27;100099.72;;;21.94;43.71
74621;BME280;64861;47.546;19.254;2023-03-01T08:18:55;100101.94;;;21.99;43.57
74621;BME280;64861;47.546;19.254;2023-03-01T08:21:24;100109.28;;;22.05;43.60
74621;BME280;64861;47.546;19.254;2023-03-01T08:23:49;100101.88;;;22.09;43.51
74621;BME280;64861;47.546;19.254;2023-03-01T08:26:20;100105.72;;;22.14;43.46
74621;BME280;64861;47.546;19.254;2023-03-01T08:28:47;100087.69;;;22.08;43.46
74621;BME280;64861;47.546;19.254;2023-03-01T08:31:22;100098.81;;;22.21;43.09
74621;BME280;64861;47.546;19.254;2023-03-01T08:33:48;100091.13;;;22.18;43.27
74621;BME280;64861;47.546;19.254;2023-03-01T08:36:24;100095.41;;;22.29;43.16
74621;BME280;64861;47.546;19.254;2023-03-01T08:38:50;100088.00;;;22.41;42.89
74621;BME280;64861;47.546;19.254;2023-03-01T08:41:15;100088.47;;;22.36;42.95
74621;BME280;64861;47.546;19.254;2023-03-01T08:43:41;100082.38;;;22.44;42.67
74621;BME280;64861;47.546;19.254;2023-03-01T08:46:07;100084.38;;;22.42;42.80
74621;BME280;64861;47.546;19.254;2023-03-01T08:48:32;100086.56;;;22.46;42.70
74621;BME280;64861;47.546;19.254;2023-03-01T08:51:16;100079.88;;;22.68;42.36
74621;BME280;64861;47.546;19.254;2023-03-01T08:53:42;100077.78;;;23.06;41.60
74621;BME280;64861;47.546;19.254;2023-03-01T08:56:08;100076.72;;;23.33;40.91
74621;BME280;64861;47.546;19.254;2023-03-01T08:58:34;100077.56;;;23.34;40.97
74621;BME280;64861;47.546;19.254;2023-03-01T09:01:00;100075.22;;;23.31;41.09
74621;BME280;64861;47.546;19.254;2023-03-01T09:03:26;100068.78;;;23.41;40.82
74621;BME280;64861;47.546;19.254;2023-03-01T09:05:52;100076.06;;;23.31;41.13
74621;BME280;64861;47.546;19.254;2023-03-01T09:08:19;100069.09;;;23.04;41.69
74621;BME280;64861;47.546;19.254;2023-03-01T09:10:44;100071.91;;;23.37;41.07
74621;BME280;64861;47.546;19.254;2023-03-01T09:13:10;100060.06;;;23.82;40.19
74621;BME280;64861;47.546;19.254;2023-03-01T09:15:37;100048.03;;;23.78;40.20
74621;BME280;64861;47.546;19.254;2023-03-01T09:18:03;100042.84;;;23.76;40.26
74621;BME280;64861;47.546;19.254;2023-03-01T09:20:30;100049.72;;;24.11;39.72
74621;BME280;64861;47.546;19.254;2023-03-01T09:22:56;100055.09;;;25.00;38.15
74621;BME280;64861;47.546;19.254;2023-03-01T09:25:23;100046.94;;;25.41;37.40
74621;BME280;64861;47.546;19.254;2023-03-01T09:27:52;100046.66;;;25.59;36.86
74621;BME280;64861;47.546;19.254;2023-03-01T09:30:18;100042.97;;;25.91;36.22
74621;BME280;64861;47.546;19.254;2023-03-01T09:32:44;100043.25;;;25.96;36.10
74621;BME280;64861;47.546;19.254;2023-03-01T09:35:11;100035.63;;;26.45;34.97
74621;BME280;64861;47.546;19.254;2023-03-01T09:37:37;100034.22;;;26.73;34.64
74621;BME280;64861;47.546;19.254;2023-03-01T09:40:04;100030.03;;;26.70;34.97
74621;BME280;64861;47.546;19.254;2023-03-01T09:42:32;100025.38;;;27.08;34.25
74621;BME280;64861;47.546;19.254;2023-03-01T09:45:06;100021.81;;;27.16;33.84
74621;BME280;64861;47.546;19.254;2023-03-01T09:47:35;100020.03;;;27.59;33.41
74621;BME280;64861;47.546;19.254;2023-03-01T09:50:20;100020.94;;;27.88;32.65
74621;BME280;64861;47.546;19.254;2023-03-01T09:55:17;100017.38;;;28.02;32.72
74621;BME280;64861;47.546;19.254;2023-03-01T09:57:51;100014.25;;;28.27;32.14
74621;BME280;64861;47.546;19.254;2023-03-01T10:03:16;100003.94;;;28.30;31.51
74621;BME280;64861;47.546;19.254;2023-03-01T10:08:36;100011.63;;;28.62;31.70
74621;BME280;64861;47.546;19.254;2023-03-01T10:11:05;99997.78;;;28.37;31.50
74621;BME280;64861;47.546;19.254;2023-03-01T10:14:03;100006.34;;;28.47;31.26
74621;BME280;64861;47.546;19.254;2023-03-01T10:16:51;99998.97;;;28.55;30.94
74621;BME280;64861;47.546;19.254;2023-03-01T10:20:05;99993.22;;;28.65;31.24
74621;BME280;64861;47.546;19.254;2023-03-01T10:22:28;99992.16;;;28.60;30.95
74621;BME280;64861;47.546;19.254;2023-03-01T10:24:56;99980.59;;;28.66;30.61
74621;BME280;64861;47.546;19.254;2023-03-01T10:27:34;99978.19;;;28.43;31.30
74621;BME280;64861;47.546;19.254;2023-03-01T10:30:17;99964.91;;;28.69;31.03
74621;BME280;64861;47.546;19.254;2023-03-01T10:32:46;99977.53;;;28.69;30.62
74621;BME280;64861;47.546;19.254;2023-03-01T10:35:26;99972.31;;;28.67;31.12
74621;BME280;64861;47.546;19.254;2023-03-01T10:38:14;99969.09;;;28.78;30.83
74621;BME280;64861;47.546;19.254;2023-03-01T10:40:55;99959.56;;;28.76;30.63
74621;BME280;64861;47.546;19.254;2023-03-01T10:43:26;99958.44;;;28.64;30.84
74621;BME280;64861;47.546;19.254;2023-03-01T10:45:53;99954.53;;;28.66;30.75
74621;BME280;64861;47.546;19.254;2023-03-01T10:48:20;99953.31;;;28.69;30.85
74621;BME280;64861;47.546;19.254;2023-03-01T10:50:51;99947.94;;;28.69;30.67
74621;BME280;64861;47.546;19.254;2023-03-01T10:56:14;99939.25;;;28.73;30.65
74621;BME280;64861;47.546;19.254;2023-03-01T10:58:57;99938.53;;;28.51;30.96
74621;BME280;64861;47.546;19.254;2023-03-01T11:06:32;99932.16;;;28.59;30.93
74621;BME280;64861;47.546;19.254;2023-03-01T11:09:17;99923.44;;;28.22;31.73
74621;BME280;64861;47.546;19.254;2023-03-01T11:11:44;99933.03;;;28.31;31.53
74621;BME280;64861;47.546;19.254;2023-03-01T11:16:48;99930.88;;;28.20;32.05
74621;BME280;64861;47.546;19.254;2023-03-01T11:19:16;99918.91;;;28.23;32.06
74621;BME280;64861;47.546;19.254;2023-03-01T11:24:45;99914.28;;;27.82;32.34
74621;BME280;64861;47.546;19.254;2023-03-01T11:27:21;99909.03;;;27.52;33.10
74621;BME280;64861;47.546;19.254;2023-03-01T11:29:59;99904.63;;;27.08;33.67
74621;BME280;64861;47.546;19.254;2023-03-01T11:32:35;99906.50;;;25.97;35.37
74621;BME280;64861;47.546;19.254;2023-03-01T11:35:17;99914.75;;;25.27;36.69
74621;BME280;64861;47.546;19.254;2023-03-01T11:37:59;99907.25;;;24.91;36.94
74621;BME280;64861;47.546;19.254;2023-03-01T11:40:33;99906.38;;;24.68;37.72
74621;BME280;64861;47.546;19.254;2023-03-01T11:43:09;99904.78;;;24.50;38.26
74621;BME280;64861;47.546;19.254;2023-03-01T11:46:05;99905.28;;;24.37;38.66
74621;BME280;64861;47.546;19.254;2023-03-01T11:51:23;99895.47;;;24.13;39.05
74621;BME280;64861;47.546;19.254;2023-03-01T11:54:09;99889.84;;;24.08;39.21
74621;BME280;64861;47.546;19.254;2023-03-01T11:56:47;99889.69;;;24.02;39.62
74621;BME280;64861;47.546;19.254;2023-03-01T11:59:41;99888.53;;;23.96;38.58
74621;BME280;64861;47.546;19.254;2023-03-01T12:05:18;99882.47;;;24.66;37.98
74621;BME280;64861;47.546;19.254;2023-03-01T12:08:12;99879.84;;;25.20;37.20
74621;BME280;64861;47.546;19.254;2023-03-01T12:13:44;99886.22;;;24.49;38.35
74621;BME280;64861;47.546;19.254;2023-03-01T12:22:03;99870.69;;;23.39;40.63
74621;BME280;64861;47.546;19.254;2023-03-01T12:36:27;99857.84;;;23.18;41.31
74621;BME280;64861;47.546;19.254;2023-03-01T12:39:16;99854.50;;;23.16;41.31
74621;BME280;64861;47.546;19.254;2023-03-01T12:50:53;99841.16;;;23.00;41.41
74621;BME280;64861;47.546;19.254;2023-03-01T12:55:49;99825.16;;;23.00;41.54
74621;BME280;64861;47.546;19.254;2023-03-01T12:58:41;99838.53;;;23.08;41.31
74621;BME280;64861;47.546;19.254;2023-03-01T13:12:43;99827.50;;;22.95;41.79
74621;BME280;64861;47.546;19.254;2023-03-01T13:15:36;99827.97;;;22.90;41.91
74621;BME280;64861;47.546;19.254;2023-03-01T13:18:11;99827.13;;;22.90;41.95
74621;BME280;64861;47.546;19.254;2023-03-01T13:20:52;99828.97;;;22.89;41.87
74621;BME280;64861;47.546;19.254;2023-03-01T13:31:03;99813.66;;;22.91;42.03
74621;BME280;64861;47.546;19.254;2023-03-01T13:35:55;99803.00;;;22.91;42.04
74621;BME280;64861;47.546;19.254;2023-03-01T13:41:11;99802.47;;;22.88;42.02
74621;BME280;64861;47.546;19.254;2023-03-01T13:43:42;99798.50;;;22.92;41.92
74621;BME280;64861;47.546;19.254;2023-03-01T13:48:44;99792.66;;;22.88;42.06
74621;BME280;64861;47.546;19.254;2023-03-01T13:51:11;99787.47;;;22.87;42.07
74621;BME280;64861;47.546;19.254;2023-03-01T13:53:44;99784.50;;;22.82;42.20
74621;BME280;64861;47.546;19.254;2023-03-01T13:56:27;99783.66;;;22.89;42.07
74621;BME280;64861;47.546;19.254;2023-03-01T13:58:54;99785.16;;;22.92;42.05
74621;BME280;64861;47.546;19.254;2023-03-01T14:01:25;99775.47;;;22.91;42.00
74621;BME280;64861;47.546;19.254;2023-03-01T14:03:51;99770.16;;;22.91;42.07
74621;BME280;64861;47.546;19.254;2023-03-01T14:06:21;99775.81;;;22.88;42.25
74621;BME280;64861;47.546;19.254;2023-03-01T14:08:48;99773.66;;;22.91;42.11
74621;BME280;64861;47.546;19.254;2023-03-01T14:14:51;99762.00;;;22.92;41.93
74621;BME280;64861;47.546;19.254;2023-03-01T14:20:10;99762.84;;;22.85;42.12
74621;BME280;64861;47.546;19.254;2023-03-01T14:22:36;99757.66;;;22.83;42.21
74621;BME280;64861;47.546;19.254;2023-03-01T14:25:26;99743.31;;;22.84;42.19
74621;BME280;64861;47.546;19.254;2023-03-01T14:28:10;99737.16;;;22.84;42.06
74621;BME280;64861;47.546;19.254;2023-03-01T14:30:44;99740.00;;;22.90;42.12
74621;BME280;64861;47.546;19.254;2023-03-01T14:33:36;99744.50;;;22.90;42.20
74621;BME280;64861;47.546;19.254;2023-03-01T14:36:11;99742.38;;;22.93;42.10